www.nordhorn-wetter.com
Wetterdaten: aktuell Sonntag, 06.09.2026 17:35
Datum Zeit Temp. A. BodenT -5cm Temp +10cm Extra Temp Feuchte A. BlattFeuchte Bod.Feu -5cm Luftdruck Regen Wind Richtung Richtung Sonnenschein ET UV Solar Taupunkt Windböen Empfang
06.09.2026 17:35 21,2 °C 0,0 °C 21,7 °C 19,0 °C 56 % 0 lf 26 cb 1022,7 hPa 0,0 mm 0,3 km/h (0 Bft) SO 124 ° 36 min 0,229 mm 1,3 UV-I 224 W/m² 12,1 °C 1,6 km/h (1 Bft) 100,00 %
06.09.2026 16:35 21,2 °C 0,0 °C 21,7 °C 19,0 °C 57 % 0 lf 25 cb 1023,2 hPa 0,0 mm 3,6 km/h (1 Bft) O 96 ° 21 min 0,203 mm 1,5 UV-I 224 W/m² 12,3 °C 6,4 km/h (2 Bft) 100,00 %
06.09.2026 15:35 21,6 °C 0,0 °C 22,2 °C 18,4 °C 56 % 0 lf 24 cb 1023,9 hPa 0,0 mm 12,4 km/h (2 Bft) S-SW 208 ° 59 min 0,000 mm 3,0 UV-I 596 W/m² 12,4 °C 16,1 km/h (3 Bft) 86,96 %
06.09.2026 14:35 22,2 °C 0,0 °C 21,1 °C 17,3 °C 58 % 0 lf 23 cb 1024,3 hPa 0,0 mm 8,1 km/h (2 Bft) SW 219 ° 60 min 0,000 mm 2,5 UV-I 571 W/m² 13,5 °C 12,9 km/h (3 Bft) 95,65 %
06.09.2026 13:35 20,9 °C 0,0 °C 19,4 °C 16,2 °C 58 % 0 lf 22 cb 1025,1 hPa 0,0 mm 2,9 km/h (1 Bft) S-SO 164 ° 60 min 0,000 mm 4,1 UV-I 733 W/m² 12,3 °C 6,4 km/h (2 Bft) 91,30 %
06.09.2026 12:35 20,1 °C 0,0 °C 18,3 °C 15,7 °C 64 % 0 lf 22 cb 1025,6 hPa 0,0 mm 2,7 km/h (1 Bft) S-SO 149 ° 60 min 0,000 mm 4,0 UV-I 690 W/m² 13,1 °C 6,4 km/h (2 Bft) 100,00 %
06.09.2026 11:35 18,0 °C 0,0 °C 16,1 °C 14,6 °C 73 % 0 lf 22 cb 1026,1 hPa 0,0 mm 1,5 km/h (1 Bft) W 281 ° 55 min 0,000 mm 3,3 UV-I 609 W/m² 13,1 °C 4,8 km/h (1 Bft) 100,00 %
06.09.2026 10:35 17,1 °C 0,0 °C 15,0 °C 14,0 °C 73 % 0 lf 22 cb 1026,2 hPa 0,0 mm 3,4 km/h (1 Bft) W-SW 241 ° 60 min 0,000 mm 2,3 UV-I 467 W/m² 12,2 °C 4,8 km/h (1 Bft) 95,83 %
06.09.2026 09:33 14,3 °C 0,0 °C 13,9 °C 14,0 °C 84 % 0 lf 22 cb 1026,0 hPa 0,0 mm 3,6 km/h (1 Bft) W-SW 239 ° 60 min 0,000 mm 1,4 UV-I 328 W/m² 11,6 °C 4,8 km/h (1 Bft) 95,65 %
06.09.2026 08:33 11,0 °C 0,0 °C 17,8 °C 17,3 °C 93 % 0 lf 25 cb 1025,9 hPa 0,0 mm 4,2 km/h (1 Bft) W-SW 242 ° 27 min 0,000 mm 0,6 UV-I 177 W/m² 9,9 °C 6,4 km/h (2 Bft) 100,00 %
06.09.2026 07:33 8,9 °C 0,0 °C 17,8 °C 17,3 °C 96 % 0 lf 25 cb 1025,5 hPa 0,0 mm 0,1 km/h (0 Bft) W-SW 242 ° 0 min 0,000 mm 0,0 UV-I 23 W/m² 8,3 °C 1,6 km/h (1 Bft) 95,65 %
06.09.2026 06:33 8,8 °C 0,0 °C 17,8 °C 17,3 °C 96 % 0 lf 25 cb 1025,4 hPa 0,0 mm 0,0 km/h (0 Bft) W-SW 242 ° 0 min 0,000 mm 0,0 UV-I 0 W/m² 8,2 °C 0,0 km/h (0 Bft) 95,65 %
06.09.2026 05:33 9,1 °C 0,0 °C 17,8 °C 17,3 °C 95 % 0 lf 25 cb 1025,5 hPa 0,0 mm 0,0 km/h (0 Bft) W-SW 243 ° 0 min 0,000 mm 0,0 UV-I 0 W/m² 8,3 °C 0,0 km/h (0 Bft) 91,30 %
06.09.2026 04:33 9,4 °C 0,0 °C 17,8 °C 17,3 °C 94 % 0 lf 25 cb 1025,6 hPa 0,0 mm 0,0 km/h (0 Bft) W-SW 243 ° 0 min 0,000 mm 0,0 UV-I 0 W/m² 8,5 °C 0,0 km/h (0 Bft) 95,65 %
06.09.2026 03:33 9,9 °C 0,0 °C 17,8 °C 17,3 °C 94 % 0 lf 25 cb 1025,3 hPa 0,0 mm 0,0 km/h (0 Bft) W-SW 243 ° 0 min 0,000 mm 0,0 UV-I 0 W/m² 9,0 °C 0,0 km/h (0 Bft) 95,65 %
06.09.2026 02:33 10,4 °C 0,0 °C 17,8 °C 17,3 °C 93 % 0 lf 25 cb 1025,2 hPa 0,0 mm 2,2 km/h (1 Bft) W-SW 243 ° 0 min 0,000 mm 0,0 UV-I 0 W/m² 9,3 °C 3,2 km/h (1 Bft) 91,30 %
06.09.2026 01:33 10,7 °C 0,0 °C 17,8 °C 17,3 °C 92 % 0 lf 25 cb 1025,1 hPa 0,0 mm 1,4 km/h (1 Bft) W-SW 241 ° 0 min 0,000 mm 0,0 UV-I 0 W/m² 9,5 °C 3,2 km/h (1 Bft) 100,00 %
06.09.2026 00:33 11,2 °C 0,0 °C 17,8 °C 17,3 °C 90 % 0 lf 25 cb 1024,7 hPa 0,6 mm 0,0 km/h (0 Bft) W-SW 241 ° 0 min 2,235 mm 0,0 UV-I 0 W/m² 9,6 °C 0,0 km/h (0 Bft) 95,83 %
06.09.2026 00:00 11,6 °C 0,0 °C 17,8 °C 17,3 °C 90 % 0 lf 25 cb 1024,3 hPa 0,0 mm 3,0 km/h (1 Bft) W-SW 241 ° 0 min 0,000 mm 0,0 UV-I 0 W/m² 10,0 °C 4,8 km/h (1 Bft) 100,00 %
_ Min-Zeit 07:06 17:35 09:49 10:49 15:50 17:35 13:36 17:35 - 12:40 - - - - - - 07:03 12:40 06:00
Minimum _ 8,6 °C 0,0 °C 13,9 °C 14,0 °C 55 % 0 lf 22 cb 1022,7 hPa - 0,0 km/h (0 Bft) - - - - - - 7,9 °C 0,0 km/h (0 Bft) 78,26 %
_ Max-Zeit 14:34 17:35 16:31 17:35 08:10 17:35 17:35 11:06 00:02 14:12 - - 09:58 00:02 14:22 13:49 14:10 13:50 17:35
Maximum _ 22,3 °C 0,0 °C 22,2 °C 19,0 °C 96 % 0 lf 26 cb 1026,4 hPa 0,6 mm 13,1 km/h
S (3 Bft)
- - 3 min 2,235 mm 4,6 UV-I 837 W/m² 14,6 °C 22,5 km/h
S-SO (4 Bft)
100,00 %
Durchschnitt _ 14,6 °C 0,0 °C 18,1 °C 16,8 °C 80 % 0 lf 24 cb 1025,2 hPa #0,6 mm 2,8 km/h (1 Bft) W-SW - #8:20 h #2,667 mm 2,7 UV-I 429 W/m² 10,8 °C 4,8 km/h (1 Bft) 96,39 %
© 2006-2026 Nordhorn-Wetter.com